Perrin, Texas
Current Conditions -  °F | °C
As of 1:15 PM on Thursday 18 Dec 2014 (Local Time) from KXBP Reporting Station
Overcast Overcast  
Wind Chill: 50°   Ceiling: 1600
Heat Index: 50°   Visibility: 10mi
Dew Point: 50°   Wind: 3mph
Humidity: 100%   Direction: 120°ESE
Pressure: 30.13"   Gusts: NA
Location:  33.03°N, 98.07°W
Report Text: KXBP 181915Z AUTO 12003KT 10SM SCT007 OVC016 10/10 A3013 RMK AO2 T01000100
Loading
Personal Weather Stations






























Interactive Weather Map New forecast layout! Learn more

10-Day Weather Forecast

Advertisements
Track Severe Weather on mobile